createdAt,value
2019-02-12T00:01:18.090Z,78.72
2019-02-12T00:03:28.914Z,79.06
2019-02-12T00:05:39.723Z,79.20
2019-02-12T00:07:50.524Z,79.20
2019-02-12T00:10:01.431Z,79.23
2019-02-12T00:12:12.240Z,79.43
2019-02-12T00:14:23.076Z,79.28
2019-02-12T00:16:34.005Z,79.36
2019-02-12T00:18:44.777Z,79.32
2019-02-12T00:20:55.585Z,79.20
2019-02-12T00:23:06.394Z,79.17
2019-02-12T00:25:17.180Z,78.96
2019-02-12T00:27:28.014Z,78.95
2019-02-12T00:29:38.824Z,79.14
2019-02-12T00:31:49.654Z,79.29
2019-02-12T00:34:00.444Z,79.16
2019-02-12T00:36:11.251Z,79.41
2019-02-12T00:38:22.082Z,79.61
2019-02-12T00:40:32.879Z,79.63
2019-02-12T00:42:43.683Z,79.64
2019-02-12T00:44:54.498Z,79.62
2019-02-12T00:47:25.201Z,79.47
2019-02-12T00:49:36.028Z,79.47
2019-02-12T00:51:46.822Z,79.15
2019-02-12T00:53:57.745Z,79.04
2019-02-12T00:56:08.527Z,79.06
2019-02-12T00:58:19.359Z,78.94
2019-02-12T01:00:30.159Z,78.75
2019-02-12T01:02:40.987Z,78.94
2019-02-12T01:04:51.808Z,79.36
2019-02-12T01:07:02.685Z,79.50
2019-02-12T01:09:13.511Z,79.60
2019-02-12T01:11:24.334Z,79.83
2019-02-12T01:13:35.154Z,79.91
2019-02-12T01:15:45.970Z,79.96
2019-02-12T01:17:56.781Z,79.99
2019-02-12T01:20:49.257Z,80.07
2019-02-12T01:23:00.053Z,80.14
2019-02-12T01:25:10.964Z,79.97
2019-02-12T01:27:21.773Z,79.94
2019-02-12T01:29:32.569Z,80.43
2019-02-12T01:31:43.384Z,80.69
2019-02-12T01:33:54.184Z,80.72
2019-02-12T01:36:05.039Z,80.78
2019-02-12T01:41:08.129Z,80.77
2019-02-12T01:43:18.927Z,80.66
2019-02-12T01:45:29.731Z,80.80
2019-02-12T01:47:40.533Z,80.93
2019-02-12T01:49:51.338Z,81.00
2019-02-12T01:52:02.148Z,81.36
2019-02-12T01:54:12.948Z,81.42
2019-02-12T01:56:23.765Z,81.74
2019-02-12T01:58:34.596Z,81.77
2019-02-12T02:00:45.394Z,81.74
2019-02-12T02:02:56.242Z,81.67
2019-02-12T02:05:48.688Z,81.58
2019-02-12T02:07:59.513Z,81.53
2019-02-12T02:10:51.954Z,81.39
2019-02-12T02:13:02.861Z,81.30
2019-02-12T02:15:55.305Z,81.37
2019-02-12T02:18:06.124Z,81.32
2019-02-12T02:20:16.915Z,81.34
2019-02-12T02:22:27.753Z,81.41
2019-02-12T02:24:38.538Z,81.41
2019-02-12T02:26:49.404Z,81.39
2019-02-12T02:29:00.204Z,81.50
2019-02-12T02:31:11.012Z,81.52
2019-02-12T02:33:21.829Z,81.47
2019-02-12T02:35:32.617Z,81.43
2019-02-12T02:37:43.450Z,81.31
2019-02-12T02:39:54.257Z,81.40
2019-02-12T02:42:05.052Z,81.41
2019-02-12T02:44:15.874Z,81.46
2019-02-12T02:46:26.685Z,81.47
2019-02-12T02:48:37.500Z,81.35
2019-02-12T02:50:48.294Z,81.30
2019-02-12T02:52:59.124Z,81.37
2019-02-12T02:55:09.931Z,81.41
2019-02-12T02:57:20.726Z,81.29
2019-02-12T02:59:31.542Z,81.20
2019-02-12T03:01:42.363Z,81.17
2019-02-12T03:03:53.178Z,81.09
2019-02-12T03:06:04.090Z,80.87
2019-02-12T03:08:14.942Z,80.79
2019-02-12T03:10:25.752Z,80.74
2019-02-12T03:12:36.653Z,80.54
2019-02-12T03:14:47.484Z,80.52
2019-02-12T03:16:58.278Z,80.56
2019-02-12T03:19:09.099Z,80.59
2019-02-12T03:21:19.898Z,80.56
2019-02-12T03:23:30.691Z,80.56
2019-02-12T03:25:41.531Z,80.43
2019-02-12T03:27:52.324Z,80.46
2019-02-12T03:30:24.932Z,80.68
2019-02-12T03:32:35.876Z,80.60
2019-02-12T03:34:46.686Z,80.60
2019-02-12T03:36:57.499Z,80.71
2019-02-12T03:39:08.317Z,80.61
2019-02-12T03:41:19.218Z,80.48
2019-02-12T03:43:30.039Z,80.29
2019-02-12T03:45:40.882Z,80.29
2019-02-12T03:47:51.671Z,80.42
2019-02-12T03:50:44.172Z,80.12
2019-02-12T03:52:54.965Z,80.09
2019-02-12T03:55:47.408Z,80.09
2019-02-12T03:57:58.203Z,80.14
2019-02-12T04:00:28.881Z,80.23
2019-02-12T04:03:19.490Z,80.33
2019-02-12T04:05:30.588Z,80.12
2019-02-12T04:07:41.378Z,80.27
2019-02-12T04:09:52.176Z,80.32
2019-02-12T04:12:02.997Z,80.22
2019-02-12T04:14:13.802Z,80.21
2019-02-12T04:16:24.631Z,80.21
2019-02-12T04:18:35.421Z,80.34
2019-02-12T04:20:46.269Z,80.01
2019-02-12T04:22:57.084Z,79.77
2019-02-12T04:25:07.911Z,79.94
2019-02-12T04:27:18.725Z,79.97
2019-02-12T04:29:29.568Z,79.94
2019-02-12T04:31:40.423Z,79.90
2019-02-12T04:33:51.237Z,79.72
2019-02-12T04:36:02.042Z,79.79
2019-02-12T04:38:12.861Z,79.83
2019-02-12T04:40:23.661Z,79.80
2019-02-12T04:42:34.485Z,79.72
2019-02-12T04:44:45.312Z,79.85
2019-02-12T04:47:18.024Z,80.00
2019-02-12T04:49:28.824Z,79.99
2019-02-12T04:51:39.671Z,79.97
2019-02-12T04:53:50.492Z,79.92
2019-02-12T04:56:01.331Z,79.84
2019-02-12T04:58:12.148Z,79.69
2019-02-12T05:00:22.956Z,79.50
2019-02-12T05:02:33.827Z,79.62
2019-02-12T05:04:44.685Z,79.48
2019-02-12T05:06:55.448Z,79.35
2019-02-12T05:09:27.053Z,79.48
2019-02-12T05:12:19.468Z,79.52
2019-02-12T05:14:30.303Z,79.53
2019-02-12T05:16:41.094Z,79.62
2019-02-12T05:18:51.914Z,79.57
2019-02-12T05:21:02.721Z,79.61
2019-02-12T05:23:13.527Z,79.67
2019-02-12T05:25:24.314Z,79.93
2019-02-12T05:27:35.134Z,80.09
2019-02-12T05:29:45.948Z,80.20
2019-02-12T05:31:56.727Z,80.54
2019-02-12T05:34:07.542Z,80.44
2019-02-12T05:36:18.348Z,80.23
2019-02-12T05:38:29.155Z,80.19
2019-02-12T05:40:39.945Z,80.25
2019-02-12T05:42:50.746Z,80.24
2019-02-12T05:45:43.553Z,80.21
2019-02-12T05:47:54.346Z,80.26
2019-02-12T05:50:46.896Z,80.27
2019-02-12T05:52:57.671Z,80.29
2019-02-12T05:55:08.621Z,80.28
2019-02-12T05:57:19.402Z,80.22
2019-02-12T05:59:30.330Z,80.25
2019-02-12T06:01:41.148Z,80.26
2019-02-12T06:03:51.963Z,80.34
2019-02-12T06:06:02.784Z,80.21
2019-02-12T06:08:13.587Z,80.18
2019-02-12T06:10:24.381Z,80.05
2019-02-12T06:14:57.264Z,79.89
2019-02-12T06:17:27.942Z,79.44
2019-02-12T06:19:38.743Z,79.44
2019-02-12T06:21:49.583Z,79.49
2019-02-12T06:24:00.379Z,79.53
2019-02-12T06:26:11.228Z,79.67
2019-02-12T06:28:22.007Z,79.62
2019-02-12T06:30:32.831Z,79.59
2019-02-12T06:32:43.648Z,79.40
2019-02-12T06:34:54.428Z,79.38
2019-02-12T06:37:05.250Z,79.29
2019-02-12T06:39:16.042Z,79.18
2019-02-12T06:41:26.851Z,79.18
2019-02-12T06:43:37.633Z,79.10
2019-02-12T06:45:48.458Z,78.82
2019-02-12T06:47:59.265Z,78.90
2019-02-12T06:50:51.733Z,78.85
2019-02-12T06:53:02.554Z,78.89
2019-02-12T06:55:13.362Z,78.77
2019-02-12T06:57:24.168Z,78.83
2019-02-12T06:59:35.016Z,78.83
2019-02-12T07:01:45.829Z,78.75
2019-02-12T07:04:38.266Z,78.76
2019-02-12T07:07:30.715Z,78.79
2019-02-12T07:10:23.169Z,78.81
2019-02-12T07:13:13.709Z,78.58
2019-02-12T07:16:06.142Z,78.27
2019-02-12T07:18:58.618Z,78.03
2019-02-12T07:21:51.066Z,78.22
2019-02-12T07:24:43.561Z,78.36
2019-02-12T07:27:36.049Z,77.92
2019-02-12T07:30:26.592Z,78.19
2019-02-12T07:33:19.075Z,78.11
2019-02-12T07:36:09.600Z,77.80
2019-02-12T07:39:02.064Z,77.74
2019-02-12T07:41:52.593Z,77.81
2019-02-12T07:44:45.051Z,77.63
2019-02-12T07:47:35.585Z,77.41
2019-02-12T07:50:26.125Z,77.37
2019-02-12T07:53:16.672Z,77.47
2019-02-12T07:56:07.209Z,77.46
2019-02-12T07:58:57.752Z,77.23
2019-02-12T08:01:48.281Z,77.20
2019-02-12T08:04:40.773Z,77.31
2019-02-12T08:07:33.203Z,76.70
2019-02-12T08:10:23.762Z,76.76
2019-02-12T08:13:14.300Z,76.95
2019-02-12T08:16:04.859Z,76.34
2019-02-12T08:18:57.324Z,76.37
2019-02-12T08:21:49.756Z,76.05
2019-02-12T08:24:40.324Z,76.00
2019-02-12T08:27:30.842Z,75.52
2019-02-12T08:30:21.420Z,75.28
2019-02-12T08:33:13.883Z,74.97
2019-02-12T08:36:04.440Z,74.28
2019-02-12T08:38:54.995Z,73.44
2019-02-12T08:41:47.456Z,71.78
2019-02-12T08:44:37.984Z,71.58
2019-02-12T08:47:28.537Z,70.48
2019-02-12T08:50:20.986Z,69.49
2019-02-12T08:53:11.542Z,69.36
2019-02-12T08:56:02.135Z,69.25
2019-02-12T08:58:52.654Z,69.88
2019-02-12T09:01:43.218Z,68.06
2019-02-12T09:04:33.772Z,66.72
2019-02-12T09:07:24.356Z,65.38
2019-02-12T09:10:14.912Z,64.29
2019-02-12T09:13:07.366Z,64.37
2019-02-12T09:15:59.823Z,63.75
2019-02-12T09:18:52.295Z,62.99
2019-02-12T09:21:44.760Z,62.54
2019-02-12T09:24:35.289Z,62.04
2019-02-12T09:27:25.834Z,63.04
2019-02-12T09:30:18.273Z,62.41
2019-02-12T09:33:10.727Z,61.98
2019-02-12T09:36:01.291Z,62.49
2019-02-12T09:38:53.771Z,61.79
2019-02-12T09:41:44.312Z,61.83
2019-02-12T09:44:34.871Z,62.39
2019-02-12T09:47:25.437Z,62.21
2019-02-12T09:50:16.004Z,61.54
2019-02-12T09:53:08.511Z,61.98
2019-02-12T09:55:59.038Z,62.22
2019-02-12T09:58:51.521Z,61.42
2019-02-12T10:01:43.965Z,62.44
2019-02-12T10:04:34.543Z,61.13
2019-02-12T10:07:27.075Z,60.95
2019-02-12T10:10:19.493Z,61.08
2019-02-12T10:13:10.069Z,60.59
2019-02-12T10:16:00.609Z,60.88
2019-02-12T10:18:51.180Z,61.17
2019-02-12T10:21:41.795Z,60.28
2019-02-12T10:24:34.250Z,60.34
2019-02-12T10:27:26.687Z,60.36
2019-02-12T10:30:17.252Z,59.85
2019-02-12T10:32:27.852Z,60.11
2019-02-12T10:34:38.678Z,59.00
2019-02-12T10:36:49.572Z,58.70
2019-02-12T10:39:00.384Z,58.91
2019-02-12T10:41:11.232Z,59.25
2019-02-12T10:43:22.156Z,60.02
2019-02-12T10:45:40.708Z,60.19
2019-02-12T10:47:51.504Z,59.60
2019-02-12T10:50:43.972Z,60.04
2019-02-12T10:52:54.779Z,59.92
2019-02-12T10:55:05.723Z,60.09
2019-02-12T11:00:50.404Z,60.07
2019-02-12T11:03:42.868Z,59.82
2019-02-12T11:05:53.739Z,60.15
2019-02-12T11:08:04.638Z,60.72
2019-02-12T11:10:15.575Z,60.90
2019-02-12T11:12:26.377Z,60.13
2019-02-12T11:14:37.179Z,60.63
2019-02-12T11:16:48.048Z,60.40
2019-02-12T11:18:58.834Z,60.66
2019-02-12T11:21:12.083Z,60.70
2019-02-12T11:23:22.373Z,60.34
2019-02-12T11:25:33.191Z,59.53
2019-02-12T11:27:44.066Z,59.36
2019-02-12T11:29:54.876Z,59.08
2019-02-12T11:32:05.723Z,58.34
2019-02-12T11:34:16.547Z,58.16
2019-02-12T11:36:27.416Z,57.92
2019-02-12T11:38:38.228Z,57.74
2019-02-12T11:40:49.047Z,58.15
2019-02-12T11:42:59.872Z,56.93
2019-02-12T11:45:52.350Z,57.11
2019-02-12T11:48:03.175Z,56.23
2019-02-12T11:50:13.959Z,56.93
2019-02-12T11:52:24.881Z,57.56
2019-02-12T11:54:43.433Z,57.30
2019-02-12T11:56:48.430Z,55.73
2019-02-12T11:58:59.229Z,55.57
2019-02-12T12:03:42.487Z,55.26
2019-02-12T12:05:53.296Z,55.47
2019-02-12T12:08:04.241Z,55.60
2019-02-12T12:10:15.036Z,56.62
2019-02-12T12:12:25.868Z,57.18
2019-02-12T12:14:56.554Z,57.27
2019-02-12T12:17:07.416Z,57.27
2019-02-12T12:19:18.236Z,58.11
2019-02-12T12:21:29.051Z,57.79
2019-02-12T12:23:39.886Z,58.16
2019-02-12T12:25:50.717Z,58.52
2019-02-12T12:28:01.654Z,58.85
2019-02-12T12:30:54.092Z,59.31
2019-02-12T12:33:04.941Z,58.84
2019-02-12T12:35:15.726Z,59.77
2019-02-12T12:37:26.529Z,60.24
2019-02-12T12:39:37.390Z,59.42
2019-02-12T12:41:48.164Z,57.97
2019-02-12T12:43:58.995Z,58.58
2019-02-12T12:46:09.802Z,58.57
2019-02-12T12:48:20.697Z,58.40
2019-02-12T12:50:31.532Z,56.69
2019-02-12T12:52:42.360Z,56.58
2019-02-12T12:54:59.729Z,56.92
2019-02-12T12:57:05.887Z,56.28
2019-02-12T12:59:16.721Z,55.81
2019-02-12T13:01:27.556Z,56.39
2019-02-12T13:03:38.377Z,56.15
2019-02-12T13:05:49.204Z,56.26
2019-02-12T13:08:00.004Z,55.82
2019-02-12T13:10:52.531Z,55.56
2019-02-12T13:13:04.762Z,55.32
2019-02-12T13:15:16.070Z,53.54
2019-02-12T13:17:26.860Z,53.50
2019-02-12T13:19:37.735Z,52.41
2019-02-12T13:21:48.529Z,52.38
2019-02-12T13:23:59.331Z,52.71
2019-02-12T13:26:10.177Z,52.73
2019-02-12T13:28:20.981Z,52.81
2019-02-12T13:30:31.918Z,53.53
2019-02-12T13:32:42.822Z,52.65
2019-02-12T13:34:53.696Z,52.84
2019-02-12T13:37:04.543Z,52.21
2019-02-12T13:39:15.351Z,52.41
2019-02-12T13:41:26.179Z,52.24
2019-02-12T13:43:36.982Z,52.68
2019-02-12T13:45:47.802Z,51.90
2019-02-12T13:47:58.598Z,51.72
2019-02-12T13:50:51.062Z,51.87
2019-02-12T13:53:01.905Z,50.92
2019-02-12T13:55:32.588Z,52.14
2019-02-12T13:57:43.432Z,52.14
2019-02-12T13:59:54.245Z,51.78
2019-02-12T14:02:05.142Z,52.65
2019-02-12T14:04:15.999Z,52.58
2019-02-12T14:06:26.817Z,52.49
2019-02-12T14:08:37.608Z,52.41
2019-02-12T14:10:48.537Z,53.25
2019-02-12T14:12:59.332Z,53.86
2019-02-12T14:15:31.936Z,54.05
2019-02-12T14:17:42.735Z,53.74
2019-02-12T14:19:53.558Z,53.43
2019-02-12T14:22:04.482Z,53.51
2019-02-12T14:24:15.333Z,53.70
2019-02-12T14:26:26.152Z,53.61
2019-02-12T14:28:37.003Z,53.61
2019-02-12T14:30:47.799Z,53.58
2019-02-12T14:32:58.597Z,54.07
2019-02-12T14:35:51.080Z,54.03
2019-02-12T14:38:01.882Z,53.61
2019-02-12T14:40:54.389Z,54.00
2019-02-12T14:43:13.666Z,53.66
2019-02-12T14:45:18.341Z,53.78
2019-02-12T14:47:29.145Z,53.49
2019-02-12T14:49:39.976Z,54.10
2019-02-12T14:51:50.805Z,54.63
2019-02-12T14:56:18.443Z,54.71
2019-02-12T14:58:29.297Z,54.91
2019-02-12T15:00:40.202Z,54.14
2019-02-12T15:03:04.334Z,54.46
2019-02-12T15:05:15.315Z,54.82
2019-02-12T15:07:26.100Z,54.83
2019-02-12T15:09:36.932Z,54.98
2019-02-12T15:11:47.768Z,54.52
2019-02-12T15:13:58.577Z,54.03
2019-02-12T15:16:09.431Z,54.67
2019-02-12T15:18:20.250Z,54.99
2019-02-12T15:20:31.079Z,54.95
2019-02-12T15:22:41.860Z,54.83
2019-02-12T15:24:52.872Z,54.95
2019-02-12T15:27:03.675Z,55.05
2019-02-12T15:29:14.598Z,55.24
2019-02-12T15:31:25.386Z,55.10
2019-02-12T15:33:36.196Z,55.15
2019-02-12T15:35:47.033Z,55.60
2019-02-12T15:37:57.834Z,56.13
2019-02-12T15:40:50.341Z,56.19
2019-02-12T15:43:01.171Z,56.40
2019-02-12T15:45:53.640Z,56.31
2019-02-12T15:48:04.452Z,56.78
2019-02-12T15:50:15.278Z,57.18
2019-02-12T15:52:26.078Z,56.94
2019-02-12T15:54:36.881Z,57.26
2019-02-12T15:56:47.708Z,57.29
2019-02-12T15:58:58.513Z,57.61
2019-02-12T16:01:09.359Z,57.69
2019-02-12T16:03:20.541Z,57.44
2019-02-12T16:05:34.803Z,69.62
2019-02-12T16:07:47.368Z,62.16
2019-02-12T16:09:58.578Z,58.51
2019-02-12T16:12:09.460Z,55.11
2019-02-12T16:14:20.662Z,55.12
2019-02-12T16:16:33.003Z,53.26
2019-02-12T16:18:45.525Z,52.24
2019-02-12T16:20:56.562Z,51.85
2019-02-12T16:23:07.373Z,52.53
2019-02-12T16:25:18.188Z,53.45
2019-02-12T16:27:28.996Z,54.47
2019-02-12T16:29:40.580Z,54.98
2019-02-12T16:31:52.670Z,55.68
2019-02-12T16:34:03.485Z,56.13
2019-02-12T16:36:14.308Z,56.43
2019-02-12T16:38:25.126Z,57.03
2019-02-12T16:40:35.921Z,57.24
2019-02-12T16:42:46.774Z,57.56
2019-02-12T16:44:57.575Z,57.93
2019-02-12T16:47:08.425Z,58.47
2019-02-12T16:49:19.218Z,58.20
2019-02-12T16:51:30.127Z,58.61
2019-02-12T16:54:22.588Z,58.81
2019-02-12T16:56:33.421Z,58.89
2019-02-12T16:59:04.126Z,59.12
2019-02-12T17:01:15.046Z,59.12
2019-02-12T17:03:25.932Z,59.31
2019-02-12T17:05:36.865Z,59.33
2019-02-12T17:07:47.714Z,59.54
2019-02-12T17:09:58.538Z,59.67
2019-02-12T17:12:09.364Z,59.36
2019-02-12T17:14:20.264Z,59.58
2019-02-12T17:16:31.106Z,59.91
2019-02-12T17:18:41.935Z,59.97
2019-02-12T17:20:52.753Z,60.08
2019-02-12T17:23:03.585Z,59.93
2019-02-12T17:25:14.539Z,60.07
2019-02-12T17:27:25.347Z,60.31
2019-02-12T17:29:36.209Z,60.32
2019-02-12T17:31:47.004Z,60.55
2019-02-12T17:33:57.854Z,60.54
2019-02-12T17:36:08.712Z,60.57
2019-02-12T17:38:19.580Z,60.58
2019-02-12T17:40:30.387Z,60.74
2019-02-12T17:42:41.189Z,60.91
2019-02-12T17:44:52.031Z,61.11
2019-02-12T17:47:02.981Z,61.78
2019-02-12T17:49:13.832Z,62.05
2019-02-12T17:51:24.649Z,62.20
2019-02-12T17:56:07.856Z,62.67
2019-02-12T17:58:18.659Z,62.82
2019-02-12T18:00:49.777Z,63.21
2019-02-12T18:03:00.663Z,63.49
2019-02-12T18:05:11.661Z,64.14
2019-02-12T18:07:22.603Z,64.25
2019-02-12T18:09:33.432Z,64.21
2019-02-12T18:11:44.277Z,64.51
2019-02-12T18:13:55.120Z,64.81
2019-02-12T18:16:06.055Z,65.16
2019-02-12T18:18:16.844Z,65.24
2019-02-12T18:20:27.729Z,65.40
2019-02-12T18:22:38.571Z,65.52
2019-02-12T18:24:49.374Z,65.71
2019-02-12T18:27:00.219Z,65.72
2019-02-12T18:29:11.022Z,65.96
2019-02-12T18:31:21.922Z,66.11
2019-02-12T18:33:32.697Z,66.12
2019-02-12T18:40:17.747Z,67.22
2019-02-12T18:42:28.660Z,67.32
2019-02-12T18:44:39.510Z,67.55
2019-02-12T18:46:50.429Z,67.88
2019-02-12T18:49:01.259Z,68.13
2019-02-12T18:51:12.120Z,68.41
2019-02-12T18:53:22.930Z,68.49
2019-02-12T18:55:33.865Z,68.43
2019-02-12T18:57:44.741Z,68.40
2019-02-12T18:59:55.550Z,68.56
2019-02-12T19:02:06.590Z,68.60
2019-02-12T19:04:17.495Z,68.69
2019-02-12T19:06:28.425Z,68.81
2019-02-12T19:08:39.264Z,68.91
2019-02-12T19:10:50.164Z,68.93
2019-02-12T19:18:38.740Z,68.58
2019-02-12T19:20:49.681Z,68.56
2019-02-12T19:23:00.533Z,68.64
2019-02-12T19:25:11.349Z,68.47
2019-02-12T19:27:22.360Z,68.64
2019-02-12T19:29:33.170Z,68.48
2019-02-12T19:31:44.001Z,68.93
2019-02-12T19:33:54.842Z,68.89
2019-02-12T19:36:05.636Z,69.04
2019-02-12T19:38:16.541Z,68.99
2019-02-12T19:40:27.384Z,69.38
2019-02-12T19:44:57.383Z,69.01
2019-02-12T19:47:08.193Z,68.84
2019-02-12T19:51:35.913Z,69.26
2019-02-12T19:58:20.348Z,69.58
2019-02-12T20:00:31.161Z,70.18
2019-02-12T20:02:41.968Z,70.70
2019-02-12T20:04:52.892Z,70.86
2019-02-12T20:07:03.704Z,70.53
2019-02-12T20:09:35.077Z,69.84
2019-02-12T20:11:45.902Z,69.84
2019-02-12T20:13:56.822Z,70.37
2019-02-12T20:16:07.939Z,70.44
2019-02-12T20:18:18.811Z,70.49
2019-02-12T20:20:29.743Z,70.65
2019-02-12T20:22:40.690Z,70.68
2019-02-12T20:24:51.588Z,70.84
2019-02-12T20:27:06.582Z,70.80
2019-02-12T20:29:15.183Z,70.76
2019-02-12T20:31:26.071Z,70.91
2019-02-12T20:33:36.899Z,70.95
2019-02-12T20:35:47.798Z,70.95
2019-02-12T20:37:58.635Z,70.85
2019-02-12T20:40:31.301Z,70.84
2019-02-12T20:42:42.250Z,70.90
2019-02-12T20:47:09.697Z,70.95
2019-02-12T20:49:20.665Z,71.11
2019-02-12T20:51:31.675Z,71.22
2019-02-12T20:53:42.500Z,71.19
2019-02-12T20:55:53.414Z,71.09
2019-02-12T20:58:05.847Z,71.05
2019-02-12T21:00:37.074Z,71.04
2019-02-12T21:02:47.972Z,71.01
2019-02-12T21:05:12.405Z,71.07
2019-02-12T21:07:36.414Z,70.94
2019-02-12T21:09:47.328Z,70.60
2019-02-12T21:11:58.202Z,70.54
2019-02-12T21:14:09.021Z,70.45
2019-02-12T21:16:21.427Z,70.37
2019-02-12T21:18:32.671Z,70.31
2019-02-12T21:20:43.488Z,70.21
2019-02-12T21:23:36.040Z,70.42
2019-02-12T21:25:46.912Z,70.68
2019-02-12T21:27:57.781Z,70.92
2019-02-12T21:30:30.071Z,71.04
2019-02-12T21:32:40.904Z,71.10
2019-02-12T21:34:51.718Z,71.04
2019-02-12T21:37:02.586Z,71.00
2019-02-12T21:41:45.887Z,71.02
2019-02-12T21:46:13.684Z,71.12
2019-02-12T21:48:24.547Z,71.24
2019-02-12T21:50:35.361Z,71.24
2019-02-12T21:52:46.207Z,71.22
2019-02-12T21:54:57.021Z,71.55
2019-02-12T21:59:25.191Z,71.72
2019-02-12T22:01:35.998Z,71.87
2019-02-12T22:03:46.923Z,71.86
2019-02-12T22:05:57.743Z,71.89
2019-02-12T22:08:08.559Z,72.00
2019-02-12T22:10:46.350Z,72.07
2019-02-12T22:12:53.892Z,71.80
2019-02-12T22:15:46.386Z,71.88
2019-02-12T22:17:57.183Z,71.83
2019-02-12T22:20:49.651Z,71.85
2019-02-12T22:23:01.854Z,71.78
2019-02-12T22:25:13.217Z,71.67
2019-02-12T22:27:24.010Z,71.45
2019-02-12T22:29:34.869Z,71.49
2019-02-12T22:31:45.679Z,71.52
2019-02-12T22:33:56.510Z,71.60
2019-02-12T22:36:07.411Z,71.54
2019-02-12T22:38:18.228Z,71.21
2019-02-12T22:40:29.041Z,71.26
2019-02-12T22:42:39.865Z,71.23
2019-02-12T22:44:50.704Z,71.29
2019-02-12T22:47:01.538Z,71.39
2019-02-12T22:49:12.360Z,71.40
2019-02-12T22:51:23.176Z,71.42
2019-02-12T22:53:33.985Z,71.28
2019-02-12T22:55:44.899Z,71.22
2019-02-12T22:58:15.573Z,71.21
2019-02-12T23:01:08.032Z,71.21
2019-02-12T23:03:19.023Z,71.48
2019-02-12T23:05:29.900Z,71.67
2019-02-12T23:07:40.827Z,71.74
2019-02-12T23:09:51.729Z,71.78
2019-02-12T23:14:21.247Z,71.94
2019-02-12T23:16:32.079Z,72.39
2019-02-12T23:18:42.880Z,72.57
2019-02-12T23:20:53.713Z,72.71
2019-02-12T23:23:04.521Z,72.95
2019-02-12T23:25:15.321Z,73.21
2019-02-12T23:27:26.160Z,73.53
2019-02-12T23:29:36.962Z,73.81
2019-02-12T23:31:47.777Z,73.97
2019-02-12T23:33:58.616Z,73.92
2019-02-12T23:36:09.452Z,73.77
2019-02-12T23:38:20.294Z,73.81
2019-02-12T23:40:31.079Z,73.79
2019-02-12T23:42:41.942Z,73.83
2019-02-12T23:44:52.675Z,73.72
2019-02-12T23:47:03.619Z,73.44
2019-02-12T23:49:14.414Z,73.33
2019-02-12T23:51:25.254Z,73.16
2019-02-12T23:53:36.020Z,73.25
2019-02-12T23:55:46.826Z,73.31
2019-02-12T23:58:05.572Z,73.36
